Time;durP1;ratioP1;P1;durP2;ratioP2;P2;SDS_P1;SDS_P2;PMS_P1;PMS_P2;Temp;Humidity;BMP_temperature;BMP_pressure;BME280_temperature;BME280_humidity;BME280_pressure;Samples;Min_cycle;Max_cycle;Signal;HPM_P1;HPM_P2
2021/03/08 00:00:34;;;;;;;79.55;42.58;;;26.10;1510.40;;;;;;4915665;29;20028;-68
2021/03/08 00:03:01;;;;;;;64.80;37.92;;;26.10;1510.40;;;;;;4912729;29;20024;-68
2021/03/08 00:05:27;;;;;;;64.03;36.58;;;26.00;1484.80;;;;;;4915339;29;20035;-68
2021/03/08 00:07:53;;;;;;;66.30;36.83;;;25.90;1484.80;;;;;;4917114;29;20110;-68
2021/03/08 00:10:20;;;;;;;64.13;35.03;;;25.90;1484.80;;;;;;4915334;29;20032;-68
2021/03/08 00:12:47;;;;;;;55.72;33.03;;;25.90;1484.80;;;;;;4913752;29;20035;-68
2021/03/08 00:15:14;;;;;;;56.90;34.10;;;25.90;1484.80;;;;;;4909394;29;20039;-67
2021/03/08 00:17:40;;;;;;;62.55;34.10;;;25.90;1459.20;;;;;;4897306;29;20465;-68
2021/03/08 00:20:11;;;;;;;74.60;36.50;;;26.00;1459.20;;;;;;4918214;29;20036;-68
2021/03/08 00:22:38;;;;;;;79.15;41.53;;;26.00;1459.20;;;;;;4927882;29;20381;-68
2021/03/08 00:25:09;;;;;;;71.13;40.38;;;25.80;1459.20;;;;;;4927091;29;20030;-68
2021/03/08 00:27:35;;;;;;;63.40;38.42;;;25.90;1484.80;;;;;;4929438;29;20445;-67
2021/03/08 00:30:02;;;;;;;65.35;38.58;;;25.90;1484.80;;;;;;4926986;29;20486;-69
2021/03/08 00:32:27;;;;;;;59.28;34.92;;;25.90;1484.80;;;;;;4914311;29;20021;-68
2021/03/08 00:34:53;;;;;;;62.53;35.85;;;25.60;1459.20;;;;;;4922985;29;20478;-67
2021/03/08 00:37:19;;;;;;;72.15;38.92;;;0.60;1510.40;;;;;;4920301;29;20114;-68
2021/03/08 00:39:45;;;;;;;68.05;35.40;;;0.50;1510.40;;;;;;4915948;29;20020;-67
2021/03/08 00:42:10;;;;;;;57.75;33.35;;;0.50;1510.40;;;;;;4929970;29;20051;-67
2021/03/08 00:44:36;;;;;;;60.08;35.05;;;0.60;1510.40;;;;;;4924802;29;20044;-67
2021/03/08 00:47:02;;;;;;;57.10;35.75;;;0.70;1510.40;;;;;;4913465;29;20082;-67
2021/03/08 00:49:27;;;;;;;65.70;35.22;;;0.80;1484.80;;;;;;4916621;29;20043;-67
2021/03/08 00:51:53;;;;;;;60.03;34.40;;;0.80;1484.80;;;;;;4917115;29;20047;-67
2021/03/08 00:54:18;;;;;;;59.63;33.30;;;0.80;1510.40;;;;;;4918662;29;20094;-67
2021/03/08 00:56:44;;;;;;;60.05;37.10;;;0.90;1510.40;;;;;;4922932;29;20495;-69
2021/03/08 00:59:10;;;;;;;62.50;36.30;;;0.90;1510.40;;;;;;4925002;29;20477;-69
2021/03/08 01:01:35;;;;;;;65.97;37.40;;;0.80;1510.40;;;;;;4928719;29;20024;-67
2021/03/08 01:04:01;;;;;;;65.75;37.60;;;0.80;1536.00;;;;;;4929376;29;20023;-68
2021/03/08 01:06:27;;;;;;;76.05;44.03;;;0.80;1536.00;;;;;;4928177;29;20040;-67
2021/03/08 01:08:53;;;;;;;81.78;47.22;;;0.70;1536.00;;;;;;4928037;29;20040;-68
2021/03/08 01:11:18;;;;;;;87.80;51.05;;;0.70;1536.00;;;;;;4912681;29;20119;-67
2021/03/08 01:13:44;;;;;;;85.70;48.22;;;0.80;1536.00;;;;;;4913614;29;20024;-68
2021/03/08 01:16:10;;;;;;;87.97;45.80;;;0.90;1536.00;;;;;;4905050;29;20035;-68
2021/03/08 01:18:36;;;;;;;79.90;45.95;;;25.60;1536.00;;;;;;4920614;29;20501;-67
2021/03/08 01:21:02;;;;;;;78.03;44.72;;;0.90;1561.60;;;;;;4924297;29;20371;-68
2021/03/08 01:23:27;;;;;;;92.40;52.15;;;0.90;1536.00;;;;;;4922781;29;20044;-68
2021/03/08 01:25:53;;;;;;;91.45;50.25;;;0.70;1561.60;;;;;;4924060;29;20028;-68
2021/03/08 01:28:19;;;;;;;83.43;51.03;;;0.60;1587.20;;;;;;4945765;29;20147;-68
2021/03/08 01:30:45;;;;;;;92.15;52.50;;;0.60;1612.80;;;;;;4921102;29;20051;-68
2021/03/08 01:33:11;;;;;;;95.70;53.63;;;0.60;1612.80;;;;;;4938014;29;20033;-68
2021/03/08 01:35:38;;;;;;;89.07;50.75;;;0.70;1638.40;;;;;;4903602;29;20064;-67
2021/03/08 01:38:04;;;;;;;94.95;53.15;;;0.70;1689.60;;;;;;4923462;29;20170;-68
2021/03/08 01:40:32;;;;;;;89.30;51.38;;;0.70;1715.20;;;;;;4923103;29;20473;-68
2021/03/08 01:42:58;;;;;;;88.78;50.90;;;0.90;1740.80;;;;;;4919296;29;20036;-68
2021/03/08 01:45:25;;;;;;;85.70;50.80;;;25.70;1715.20;;;;;;4929440;29;20503;-68
2021/03/08 01:47:52;;;;;;;99.80;56.40;;;25.60;1689.60;;;;;;4945738;29;20027;-69
2021/03/08 01:50:31;;;;;;;92.40;49.90;;;0.90;1689.60;;;;;;4922398;29;20087;-69
2021/03/08 01:52:58;;;;;;;96.90;50.67;;;0.80;1689.60;;;;;;4916039;29;20040;-69
2021/03/08 01:55:26;;;;;;;90.55;52.58;;;0.90;1715.20;;;;;;4904743;29;20437;-68
2021/03/08 01:57:52;;;;;;;91.75;51.83;;;25.60;1689.60;;;;;;4916691;29;20024;-69
2021/03/08 02:00:24;;;;;;;91.90;53.15;;;25.60;1689.60;;;;;;4929070;29;20043;-69
2021/03/08 02:02:50;;;;;;;95.97;51.20;;;25.70;1689.60;;;;;;4912466;29;20087;-69
2021/03/08 02:05:18;;;;;;;97.55;52.53;;;25.60;1689.60;;;;;;4921501;29;20043;-69
2021/03/08 02:07:43;;;;;;;94.68;55.33;;;0.90;1689.60;;;;;;4913247;29;20035;-68
2021/03/08 02:10:12;;;;;;;99.28;58.53;;;0.70;1715.20;;;;;;4915928;29;20492;-68
2021/03/08 02:12:46;;;;;;;93.88;55.85;;;0.90;1715.20;;;;;;4912464;29;20032;-68
2021/03/08 02:15:40;;;;;;;98.45;56.53;;;25.60;1715.20;;;;;;4912680;29;20020;-68
2021/03/08 02:18:18;;;;;;;115.05;64.72;;;25.60;1715.20;;;;;;4918163;29;20032;-68
2021/03/08 02:20:47;;;;;;;125.65;71.63;;;25.60;1715.20;;;;;;4916492;29;20030;-69
2021/03/08 02:23:33;;;;;;;114.25;65.25;;;0.90;1740.80;;;;;;4916649;29;20079;-68
2021/03/08 02:26:18;;;;;;;;;;;0.90;1715.20;;;;;;4925059;29;20477;-69
2021/03/08 02:28:46;;;;;;;112.60;60.75;;;0.80;1715.20;;;;;;4920321;29;20402;-68
2021/03/08 02:31:20;;;;;;;122.15;68.63;;;0.70;1740.80;;;;;;4926937;29;20753;-68
2021/03/08 02:33:58;;;;;;;120.78;67.30;;;0.70;1740.80;;;;;;4916884;29;20044;-69
2021/03/08 02:36:28;;;;;;;124.25;66.03;;;0.70;1715.20;;;;;;4919745;29;20142;-69
2021/03/08 02:39:02;;;;;;;102.38;58.20;;;0.80;1715.20;;;;;;4928136;29;20024;-69
2021/03/08 02:41:30;;;;;;;115.68;65.13;;;0.80;1715.20;;;;;;4930669;29;20031;-69
2021/03/08 02:44:17;;;;;;;115.63;60.00;;;0.80;1689.60;;;;;;4922599;29;20090;-70
2021/03/08 02:46:46;;;;;;;106.93;59.85;;;0.70;1715.20;;;;;;4918716;29;20032;-69
2021/03/08 02:49:16;;;;;;;96.80;56.20;;;0.70;1715.20;;;;;;4915950;29;20076;-69
2021/03/08 02:51:55;;;;;;;90.32;53.30;;;0.80;1689.60;;;;;;4914060;29;20028;-69
2021/03/08 02:54:23;;;;;;;96.15;52.63;;;0.80;1689.60;;;;;;4914748;29;20119;-69
2021/03/08 02:56:52;;;;;;;94.20;55.42;;;0.90;1689.60;;;;;;4916205;29;20020;-69
2021/03/08 02:59:20;;;;;;;100.60;58.08;;;0.90;1689.60;;;;;;4921807;29;20031;-69
2021/03/08 03:01:48;;;;;;;98.70;59.20;;;0.80;1689.60;;;;;;4914522;29;20461;-69
2021/03/08 03:04:15;;;;;;;112.70;61.40;;;0.80;1715.20;;;;;;4914730;29;20397;-69
2021/03/08 03:06:43;;;;;;;106.30;57.95;;;0.70;1715.20;;;;;;4929298;29;20035;-69
2021/03/08 03:09:12;;;;;;;89.45;53.60;;;0.70;1715.20;;;;;;4928260;29;20024;-69
2021/03/08 03:11:44;;;;;;;93.53;55.08;;;0.80;1715.20;;;;;;4920070;29;20046;-69
2021/03/08 03:14:11;;;;;;;94.32;54.15;;;0.80;1740.80;;;;;;4925297;29;20162;-70
2021/03/08 03:16:43;;;;;;;87.75;52.15;;;0.80;1766.40;;;;;;4927090;29;20099;-69
2021/03/08 03:19:10;;;;;;;99.57;54.33;;;0.70;1766.40;;;;;;4934011;29;20035;-70
2021/03/08 03:21:37;;;;;;;92.25;54.03;;;0.70;1792.00;;;;;;4928691;29;20020;-70
2021/03/08 03:24:06;;;;;;;84.82;50.50;;;0.70;1792.00;;;;;;4915759;29;20035;-69
2021/03/08 03:26:33;;;;;;;89.35;52.28;;;0.70;1792.00;;;;;;4923093;29;20032;-69
2021/03/08 03:29:00;;;;;;;89.93;51.97;;;0.60;1792.00;;;;;;4928094;29;20528;-69
2021/03/08 03:31:27;;;;;;;98.50;54.15;;;0.50;1792.00;;;;;;4925494;29;20024;-69
2021/03/08 03:33:55;;;;;;;103.18;57.92;;;0.50;1817.60;;;;;;4928732;29;20072;-69
2021/03/08 03:36:22;;;;;;;93.53;55.28;;;0.50;1817.60;;;;;;4922427;29;20426;-69
2021/03/08 03:38:48;;;;;;;97.80;57.38;;;0.50;1817.60;;;;;;4931150;29;20107;-69
2021/03/08 03:41:14;;;;;;;110.55;60.65;;;0.50;1817.60;;;;;;4916534;29;20056;-69
2021/03/08 03:43:40;;;;;;;102.07;57.25;;;0.50;1817.60;;;;;;4927653;29;20048;-69
2021/03/08 03:46:05;;;;;;;109.40;61.03;;;0.60;1817.60;;;;;;4924368;29;20665;-69
2021/03/08 03:48:33;;;;;;;109.90;62.33;;;0.50;1792.00;;;;;;4930568;29;20477;-69
2021/03/08 03:50:59;;;;;;;102.13;63.05;;;0.50;1792.00;;;;;;4919652;29;20054;-70
2021/03/08 03:53:25;;;;;;;98.85;60.97;;;0.70;1817.60;;;;;;4921616;29;20052;-70
2021/03/08 03:55:51;;;;;;;101.53;59.70;;;0.70;1766.40;;;;;;4918044;29;20452;-69
2021/03/08 03:58:21;;;;;;;99.10;59.17;;;0.70;1792.00;;;;;;4920870;29;20492;-69
2021/03/08 04:00:57;;;;;;;100.55;60.20;;;0.70;1792.00;;;;;;4919328;29;20021;-70
2021/03/08 04:03:46;;;;;;;104.18;60.17;;;0.70;1792.00;;;;;;4920910;29;20492;-69
2021/03/08 04:06:13;;;;;;;102.78;59.42;;;0.70;1766.40;;;;;;4875729;29;20088;-69
2021/03/08 04:08:44;;;;;;;117.00;66.82;;;0.40;1792.00;;;;;;4882303;29;20048;-70
2021/03/08 04:11:12;;;;;;;108.80;66.45;;;0.40;1817.60;;;;;;4881209;29;20497;-70
2021/03/08 04:13:39;;;;;;;112.40;67.95;;;0.30;1817.60;;;;;;4882084;29;20044;-69
2021/03/08 04:16:07;;;;;;;117.00;75.35;;;0.30;1817.60;;;;;;4886563;29;20033;-69
2021/03/08 04:18:34;;;;;;;119.43;72.28;;;0.40;1817.60;;;;;;4882090;29;20482;-70
2021/03/08 04:21:01;;;;;;;137.43;80.63;;;0.40;1817.60;;;;;;4872363;29;20119;-69
2021/03/08 04:23:29;;;;;;;142.35;84.32;;;0.40;1817.60;;;;;;4882421;29;20052;-70
2021/03/08 04:25:54;;;;;;;137.55;78.45;;;0.50;1817.60;;;;;;4888930;29;20121;-70
2021/03/08 04:28:22;;;;;;;141.25;82.65;;;0.50;1817.60;;;;;;4877869;29;20046;-69
2021/03/08 04:30:48;;;;;;;135.98;75.72;;;0.50;1817.60;;;;;;4872313;29;20079;-69
2021/03/08 04:33:15;;;;;;;133.27;79.32;;;0.60;1817.60;;;;;;4877814;29;20060;-69
2021/03/08 04:35:43;;;;;;;161.40;88.13;;;0.60;1817.60;;;;;;4874044;29;20061;-68
2021/03/08 04:38:10;;;;;;;170.98;86.70;;;0.50;1817.60;;;;;;4856623;29;20125;-68
2021/03/08 04:40:36;;;;;;;171.80;84.25;;;0.40;1843.20;;;;;;4881411;29;20039;-69
2021/03/08 04:43:06;;;;;;;151.65;81.90;;;0.40;1843.20;;;;;;4891312;29;20107;-69
2021/03/08 04:45:32;;;;;;;150.52;81.25;;;0.40;1843.20;;;;;;4923891;29;20024;-68
2021/03/08 04:48:01;;;;;;;138.25;75.60;;;0.40;1817.60;;;;;;4914032;29;20044;-68
2021/03/08 04:50:28;;;;;;;145.75;82.93;;;0.40;1843.20;;;;;;4918318;29;20058;-70
2021/03/08 04:52:54;;;;;;;162.27;85.90;;;0.40;1817.60;;;;;;4925709;29;20028;-68
2021/03/08 04:55:24;;;;;;;152.98;80.22;;;0.40;1817.60;;;;;;4926799;29;20373;-68
2021/03/08 04:57:50;;;;;;;173.00;93.60;;;0.40;1817.60;;;;;;4898404;29;20036;-69
2021/03/08 05:00:18;;;;;;;159.43;88.05;;;0.30;1817.60;;;;;;4920972;29;20032;-68
2021/03/08 05:02:44;;;;;;;178.60;92.25;;;0.30;1843.20;;;;;;4919503;29;20416;-68
2021/03/08 05:05:12;;;;;;;155.55;85.78;;;0.20;1843.20;;;;;;4921607;29;20036;-68
2021/03/08 05:07:41;;;;;;;170.70;90.22;;;0.20;1868.80;;;;;;4925763;29;20036;-68
2021/03/08 05:10:26;;;;;;;171.32;95.25;;;0.20;1868.80;;;;;;4927127;29;20047;-68
2021/03/08 05:12:54;;;;;;;193.30;99.40;;;0.20;1868.80;;;;;;4913298;29;20062;-68
2021/03/08 05:15:23;;;;;;;201.32;107.40;;;0.10;1868.80;;;;;;4931964;29;20095;-69
2021/03/08 05:17:54;;;;;;;184.88;97.18;;;0.20;1868.80;;;;;;4917598;29;20028;-69
2021/03/08 05:20:20;;;;;;;165.75;88.90;;;0.20;1868.80;;;;;;4908380;29;20032;-69
2021/03/08 05:22:47;;;;;;;156.75;81.38;;;0.20;1843.20;;;;;;4917518;29;20040;-69
2021/03/08 05:25:13;;;;;;;154.15;82.72;;;0.20;1843.20;;;;;;4917881;29;20035;-69
2021/03/08 05:27:40;;;;;;;172.20;91.78;;;0.30;1843.20;;;;;;4919598;29;20035;-69
2021/03/08 05:30:07;;;;;;;174.65;91.15;;;0.30;1817.60;;;;;;4918762;29;20035;-69
2021/03/08 05:32:50;;;;;;;157.90;92.57;;;0.30;1843.20;;;;;;4921056;29;20038;-69
2021/03/08 05:35:16;;;;;;;163.95;94.28;;;0.30;1817.60;;;;;;4920586;29;20051;-69
2021/03/08 05:37:43;;;;;;;168.27;98.50;;;0.20;1817.60;;;;;;4925912;29;20039;-68
2021/03/08 05:40:29;;;;;;;181.57;100.20;;;0.30;1817.60;;;;;;4924026;29;20028;-69
2021/03/08 05:43:03;;;;;;;163.32;93.20;;;0.30;1792.00;;;;;;4917561;29;20386;-69
2021/03/08 05:45:33;;;;;;;170.18;95.65;;;0.30;1792.00;;;;;;4916816;29;20100;-68
2021/03/08 05:48:14;;;;;;;181.35;101.85;;;0.30;1792.00;;;;;;4922938;29;20056;-69
2021/03/08 05:50:55;;;;;;;174.20;98.25;;;0.40;1817.60;;;;;;4910002;29;20040;-70
2021/03/08 05:53:43;;;;;;;180.73;104.82;;;0.40;1817.60;;;;;;4914203;29;20048;-69
2021/03/08 05:56:12;;;;;;;193.15;107.32;;;0.40;1792.00;;;;;;4919547;29;20020;-69
2021/03/08 05:59:16;;;;;;;207.95;110.22;;;0.20;1843.20;;;;;;4913828;29;20164;-69
2021/03/08 06:02:29;;;;;;;202.43;106.55;;;0.30;1843.20;;;;;;4913886;29;20052;-69
2021/03/08 06:05:10;;;;;;;190.70;106.47;;;0.50;1843.20;;;;;;4925106;29;20031;-69
2021/03/08 06:07:54;;;;;;;192.95;107.63;;;0.70;1817.60;;;;;;4916428;29;20396;-68
2021/03/08 06:10:24;;;;;;;198.25;110.07;;;0.60;1817.60;;;;;;4913134;29;20544;-69
2021/03/08 06:12:54;;;;;;;217.57;111.90;;;0.70;1843.20;;;;;;4919037;29;20039;-69
2021/03/08 06:15:22;;;;;;;196.32;112.97;;;0.80;1792.00;;;;;;4916831;29;20020;-68
2021/03/08 06:17:51;;;;;;;199.73;114.93;;;25.60;1792.00;;;;;;4931101;29;20028;-68
2021/03/08 06:20:19;;;;;;;255.20;145.27;;;25.70;1792.00;;;;;;4922417;29;20040;-69
2021/03/08 06:22:46;;;;;;;275.02;153.50;;;25.80;1792.00;;;;;;4918298;29;20062;-69
2021/03/08 06:25:12;;;;;;;214.95;123.65;;;25.90;1792.00;;;;;;4928533;29;20028;-69
2021/03/08 06:27:41;;;;;;;203.18;122.80;;;25.90;1792.00;;;;;;4915897;29;20044;-69
2021/03/08 06:30:08;;;;;;;161.32;92.90;;;26.10;1766.40;;;;;;4917895;29;20023;-69
2021/03/08 06:32:34;;;;;;;173.40;97.95;;;26.10;1740.80;;;;;;4920087;29;20063;-69
2021/03/08 06:35:00;;;;;;;188.35;105.38;;;26.30;1740.80;;;;;;4917020;29;20448;-69
2021/03/08 06:37:27;;;;;;;196.77;111.22;;;26.50;1740.80;;;;;;4915089;29;20059;-69
2021/03/08 06:39:53;;;;;;;230.23;122.40;;;51.30;1740.80;;;;;;4911213;29;20127;-69
2021/03/08 06:42:19;;;;;;;229.52;126.85;;;51.40;1715.20;;;;;;4922150;29;20466;-69
2021/03/08 06:44:50;;;;;;;242.57;132.35;;;51.50;1689.60;;;;;;4924474;29;20068;-69
2021/03/08 06:47:18;;;;;;;227.82;125.88;;;51.70;1689.60;;;;;;4918526;29;20040;-69
2021/03/08 06:49:43;;;;;;;191.85;113.15;;;51.80;1689.60;;;;;;4918896;29;21487;-69
2021/03/08 06:52:14;;;;;;;188.07;113.78;;;51.90;1638.40;;;;;;4912702;29;20024;-69
2021/03/08 06:54:42;;;;;;;147.68;88.93;;;52.10;1612.80;;;;;;4922027;29;20047;-69
2021/03/08 06:57:29;;;;;;;126.80;76.63;;;76.90;1561.60;;;;;;4924200;29;20062;-70
2021/03/08 07:00:05;;;;;;;120.53;72.15;;;77.00;1510.40;;;;;;4927969;29;20024;-69
2021/03/08 07:02:48;;;;;;;109.57;64.93;;;77.10;1484.80;;;;;;4926966;29;20040;-69
2021/03/08 07:05:24;;;;;;;99.05;62.53;;;77.20;1433.60;;;;;;4910938;29;20047;-69
2021/03/08 07:07:51;;;;;;;;;;;77.30;1408.00;;;;;;4916144;29;20091;-67
2021/03/08 07:10:19;;;;;;;;;;;77.50;1433.60;;;;;;4918443;29;19912;-67
2021/03/08 07:12:49;;;;;;;112.90;65.53;;;102.40;1433.60;;;;;;4916107;29;19926;-69
2021/03/08 07:15:15;;;;;;;101.50;60.38;;;102.50;1408.00;;;;;;4922474;29;20028;-69
2021/03/08 07:17:41;;;;;;;100.88;61.95;;;102.80;1408.00;;;;;;4927230;29;20035;-68
2021/03/08 07:20:14;;;;;;;95.75;56.97;;;102.90;1356.80;;;;;;4916500;29;20024;-69
2021/03/08 07:22:40;;;;;;;100.60;59.30;;;103.10;1331.20;;;;;;4915804;29;20032;-71
2021/03/08 07:25:14;;;;;;;100.45;64.32;;;103.30;1305.60;;;;;;4915692;29;20032;-70
2021/03/08 07:27:45;;;;;;;103.95;61.60;;;128.20;1356.80;;;;;;4916528;29;20070;-69
2021/03/08 07:30:12;;;;;;;107.20;64.50;;;128.40;1331.20;;;;;;4913441;29;20016;-69
2021/03/08 07:32:40;;;;;;;108.45;65.20;;;128.70;1305.60;;;;;;4929396;29;20048;-69
2021/03/08 07:35:07;;;;;;;101.70;63.03;;;153.70;1280.00;;;;;;4915232;29;20036;-69
2021/03/08 07:37:45;;;;;;;100.78;61.63;;;154.00;1254.40;;;;;;4913703;29;20043;-67
2021/03/08 07:40:20;;;;;;;133.57;76.30;;;154.20;1228.80;;;;;;4921527;29;20024;-69
2021/03/08 07:42:46;;;;;;;105.28;64.45;;;154.40;1228.80;;;;;;4915697;29;20031;-69
2021/03/08 07:45:13;;;;;;;96.65;63.53;;;179.30;1203.20;;;;;;4894541;29;20433;-69
2021/03/08 07:47:38;;;;;;;91.65;60.63;;;179.50;1177.60;;;;;;4915917;29;20410;-69
2021/03/08 07:50:27;;;;;;;78.60;47.47;;;179.90;1152.00;;;;;;4916236;29;21248;-69
2021/03/08 07:52:55;;;;;;;74.97;49.17;;;204.80;1100.80;;;;;;4917979;29;20380;-69
2021/03/08 07:55:41;;;;;;;78.63;49.22;;;205.10;1075.20;;;;;;4914444;29;20111;-69
2021/03/08 07:58:08;;;;;;;71.00;45.63;;;205.30;1075.20;;;;;;4918503;29;20378;-69
2021/03/08 08:00:33;;;;;;;64.15;44.08;;;205.20;1049.60;;;;;;4924753;29;20047;-69
2021/03/08 08:02:59;;;;;;;72.85;47.20;;;205.40;1049.60;;;;;;4940259;29;20044;-70
2021/03/08 08:05:26;;;;;;;71.63;46.90;;;230.60;1024.00;;;;;;4921629;29;20044;-69
2021/03/08 08:07:55;;;;;;;73.22;50.10;;;230.80;1024.00;;;;;;4900320;29;20461;-69
2021/03/08 08:10:22;;;;;;;64.05;40.42;;;230.70;1024.00;;;;;;4930513;29;20032;-69
2021/03/08 08:12:49;;;;;;;66.47;43.22;;;230.70;998.40;;;;;;4924976;29;20731;-69
2021/03/08 08:15:18;;;;;;;51.13;32.95;;;230.80;1024.00;;;;;;4926677;29;20875;-70
2021/03/08 08:17:46;;;;;;;46.25;33.30;;;231.20;972.80;;;;;;4928014;29;20032;-69
2021/03/08 08:20:13;;;;;;;48.67;31.92;;;256.00;947.20;;;;;;4925642;29;20111;-69
2021/03/08 08:22:50;;;;;;;40.97;27.27;;;256.10;947.20;;;;;;4913194;29;20027;-69
2021/03/08 08:25:16;;;;;;;36.88;25.85;;;256.30;921.60;;;;;;4931658;29;20476;-69
2021/03/08 08:27:44;;;;;;;32.60;23.75;;;256.30;896.00;;;;;;4926274;29;20036;-69
2021/03/08 08:30:10;;;;;;;28.42;21.58;;;256.90;870.40;;;;;;4920200;29;20489;-68
2021/03/08 08:32:49;;;;;;;34.72;22.02;;;256.90;844.80;;;;;;4937281;29;20095;-69
2021/03/08 08:35:21;;;;;;;32.92;24.17;;;281.80;870.40;;;;;;4931733;29;20084;-69
2021/03/08 08:38:11;;;;;;;33.92;24.75;;;281.70;870.40;;;;;;4915129;29;20032;-69
2021/03/08 08:40:41;;;;;;;28.95;20.42;;;282.30;870.40;;;;;;4925326;29;20032;-69
2021/03/08 08:43:16;;;;;;;31.88;22.17;;;282.30;844.80;;;;;;4924566;29;20023;-69
2021/03/08 08:45:50;;;;;;;25.50;18.90;;;307.40;870.40;;;;;;4927798;29;20060;-70
2021/03/08 08:48:17;;;;;;;25.83;18.10;;;307.50;819.20;;;;;;4925568;29;20028;-69
2021/03/08 08:50:50;;;;;;;21.70;16.60;;;307.30;844.80;;;;;;4931732;29;20024;-69
2021/03/08 08:53:30;;;;;;;20.00;16.65;;;307.50;819.20;;;;;;4922551;29;20016;-69
2021/03/08 08:55:57;;;;;;;27.42;18.05;;;307.30;819.20;;;;;;4921395;29;20032;-69
2021/03/08 08:58:34;;;;;;;26.48;18.33;;;307.50;844.80;;;;;;4920147;29;20032;-70
2021/03/08 09:01:13;;;;;;;22.52;18.92;;;332.90;819.20;;;;;;4896031;29;20033;-69
2021/03/08 09:04:01;;;;;;;24.13;17.90;;;333.30;793.60;;;;;;4916897;29;20036;-70
2021/03/08 09:06:45;;;;;;;21.75;17.60;;;333.50;768.00;;;;;;4910530;29;20036;-70
2021/03/08 09:09:15;;;;;;;27.80;20.63;;;358.60;742.40;;;;;;4913086;29;20077;-70
2021/03/08 09:11:47;;;;;;;28.45;17.77;;;358.80;742.40;;;;;;4918716;29;20094;-68
2021/03/08 09:14:30;;;;;;;24.40;18.98;;;358.80;716.80;;;;;;4915497;29;20090;-68
2021/03/08 09:17:16;;;;;;;25.75;19.02;;;333.40;768.00;;;;;;4914703;29;20043;-70
2021/03/08 09:19:55;;;;;;;28.38;18.40;;;333.60;768.00;;;;;;4914211;29;20711;-70
2021/03/08 09:22:24;;;;;;;24.88;16.67;;;358.50;742.40;;;;;;4932192;29;20036;-71
2021/03/08 09:25:02;;;;;;;27.20;19.48;;;359.10;716.80;;;;;;4918514;29;20040;-71
2021/03/08 09:27:33;;;;;;;25.50;19.15;;;358.70;742.40;;;;;;4927912;29;20035;-70
2021/03/08 09:30:26;;;;;;;31.27;22.10;;;358.70;742.40;;;;;;4911458;29;20082;-70
2021/03/08 09:33:16;;;;;;;23.23;17.45;;;359.30;716.80;;;;;;4909422;29;20420;-70
2021/03/08 09:35:50;;;;;;;22.75;17.80;;;384.20;691.20;;;;;;4914814;29;20039;-68
2021/03/08 09:38:18;;;;;;;21.70;17.33;;;384.70;640.00;;;;;;4910917;29;20055;-68
2021/03/08 09:40:47;;;;;;;20.77;17.67;;;384.50;640.00;;;;;;4911684;29;20020;-68
2021/03/08 09:43:33;;;;;;;24.10;18.48;;;384.50;640.00;;;;;;4914671;29;20034;-68
2021/03/08 09:46:17;;;;;;;21.40;17.03;;;409.60;665.60;;;;;;4916084;29;20031;-69
2021/03/08 09:48:50;;;;;;;21.45;16.20;;;409.80;665.60;;;;;;4914439;29;20020;-68
2021/03/08 09:51:18;;;;;;;24.80;17.27;;;410.00;640.00;;;;;;4920008;29;20573;-71
2021/03/08 09:53:46;;;;;;;26.58;18.85;;;409.90;665.60;;;;;;4916942;29;20127;-69
2021/03/08 09:56:13;;;;;;;27.42;18.60;;;409.60;665.60;;;;;;4909733;29;20032;-69
2021/03/08 09:58:40;;;;;;;27.17;19.42;;;384.30;665.60;;;;;;4908547;29;20044;-69
2021/03/08 10:01:24;;;;;;;22.73;17.83;;;409.80;665.60;;;;;;4909938;29;20026;-70
2021/03/08 10:03:50;;;;;;;29.92;18.40;;;435.20;665.60;;;;;;4907177;29;20071;-69
2021/03/08 10:06:33;;;;;;;25.05;19.95;;;410.50;665.60;;;;;;4905978;29;20473;-68
2021/03/08 10:09:19;;;;;;;24.63;18.58;;;410.00;640.00;;;;;;4905551;29;20040;-69
2021/03/08 10:11:45;;;;;;;25.88;17.35;;;409.90;665.60;;;;;;4922673;29;20484;-69
2021/03/08 10:14:28;;;;;;;27.02;20.40;;;435.70;640.00;;;;;;4908582;29;20088;-69
2021/03/08 10:17:07;;;;;;;24.50;18.65;;;435.80;640.00;;;;;;4912200;29;20036;-69
2021/03/08 10:19:33;;;;;;;20.38;16.40;;;435.40;665.60;;;;;;4919391;29;20092;-69
2021/03/08 10:21:59;;;;;;;23.35;17.75;;;410.00;665.60;;;;;;4907063;29;20600;-69
2021/03/08 10:24:40;;;;;;;22.90;17.65;;;384.60;665.60;;;;;;4909098;29;20107;-71
2021/03/08 10:27:10;;;;;;;26.30;19.67;;;359.30;691.20;;;;;;4905465;29;20020;-69
2021/03/08 10:29:38;;;;;;;27.90;20.92;;;384.30;665.60;;;;;;4904450;29;20020;-71
2021/03/08 10:32:06;;;;;;;22.77;18.25;;;409.60;691.20;;;;;;4892306;29;20386;-70
2021/03/08 10:34:33;;;;;;;21.35;16.30;;;384.80;640.00;;;;;;4909192;29;20044;-71
2021/03/08 10:36:59;;;;;;;24.70;18.45;;;384.70;665.60;;;;;;4923482;29;20036;-69
2021/03/08 10:39:25;;;;;;;27.98;22.05;;;384.90;640.00;;;;;;4915973;29;20035;-69
2021/03/08 10:41:52;;;;;;;23.20;18.67;;;359.20;691.20;;;;;;4931954;29;20172;-72
2021/03/08 10:44:20;;;;;;;26.23;20.45;;;384.10;665.60;;;;;;4917932;29;20035;-70
2021/03/08 10:46:46;;;;;;;24.33;18.52;;;384.40;691.20;;;;;;4895429;29;20024;-71
2021/03/08 10:49:12;;;;;;;25.67;18.35;;;384.30;665.60;;;;;;4916522;29;20036;-69
2021/03/08 10:51:40;;;;;;;23.05;17.88;;;359.10;691.20;;;;;;4914771;29;20036;-69
2021/03/08 10:54:09;;;;;;;23.60;18.98;;;384.00;691.20;;;;;;4917836;29;20377;-71
2021/03/08 10:56:37;;;;;;;27.02;19.67;;;358.80;742.40;;;;;;4898927;29;20028;-70
2021/03/08 10:59:22;;;;;;;24.05;18.30;;;333.70;742.40;;;;;;4916696;29;20020;-70
2021/03/08 11:02:01;;;;;;;22.80;15.73;;;333.30;768.00;;;;;;4918488;29;20028;-70
2021/03/08 11:04:27;;;;;;;23.38;18.15;;;333.70;691.20;;;;;;4910869;29;20041;-70
2021/03/08 11:06:53;;;;;;;21.85;16.45;;;358.60;716.80;;;;;;4917164;29;20034;-71
2021/03/08 11:09:27;;;;;;;20.00;14.48;;;384.10;665.60;;;;;;4917659;29;20161;-71
2021/03/08 11:11:53;;;;;;;23.98;18.10;;;410.40;640.00;;;;;;4913174;29;20397;-71
2021/03/08 11:14:20;;;;;;;22.45;16.50;;;409.80;665.60;;;;;;4914511;29;20028;-70
2021/03/08 11:16:53;;;;;;;29.23;17.63;;;410.20;665.60;;;;;;4913765;29;20024;-70
2021/03/08 11:19:29;;;;;;;21.65;16.35;;;410.40;640.00;;;;;;4914364;29;20051;-70
2021/03/08 11:22:09;;;;;;;23.50;16.73;;;435.30;640.00;;;;;;4913620;29;20057;-70
2021/03/08 11:24:45;;;;;;;23.45;16.40;;;435.50;614.40;;;;;;4912584;29;20127;-70
2021/03/08 11:27:17;;;;;;;21.73;17.65;;;460.80;614.40;;;;;;4914668;29;20028;-70
2021/03/08 11:29:55;;;;;;;23.38;16.80;;;461.10;614.40;;;;;;4914950;29;20035;-70
2021/03/08 11:32:25;;;;;;;23.45;18.05;;;461.50;614.40;;;;;;4917076;29;20106;-70
2021/03/08 11:34:52;;;;;;;22.52;18.33;;;461.00;640.00;;;;;;4912977;29;20044;-70
2021/03/08 11:37:22;;;;;;;19.55;14.98;;;487.00;563.20;;;;;;4913470;29;20039;-70
2021/03/08 11:39:51;;;;;;;25.02;16.83;;;461.70;588.80;;;;;;4909597;29;20035;-70
2021/03/08 11:42:19;;;;;;;21.02;15.38;;;461.30;614.40;;;;;;4913916;29;20121;-70
2021/03/08 11:44:46;;;;;;;24.92;16.95;;;461.40;614.40;;;;;;4914299;29;20048;-70
2021/03/08 11:47:12;;;;;;;19.67;15.32;;;461.40;614.40;;;;;;4897360;29;20032;-70
2021/03/08 11:49:39;;;;;;;20.45;15.18;;;486.40;588.80;;;;;;4913854;29;20096;-70
2021/03/08 11:52:05;;;;;;;22.48;16.15;;;487.10;537.60;;;;;;4909382;29;20032;-70
2021/03/08 11:54:31;;;;;;;20.75;15.32;;;487.00;563.20;;;;;;4917391;29;20019;-72
2021/03/08 11:56:58;;;;;;;23.98;16.17;;;512.50;537.60;;;;;;4911395;29;20027;-71
2021/03/08 11:59:24;;;;;;;20.35;14.68;;;487.30;563.20;;;;;;4909353;29;20028;-68
2021/03/08 12:01:49;;;;;;;25.88;18.42;;;512.00;537.60;;;;;;4900199;29;20031;-71
2021/03/08 12:04:15;;;;;;;26.63;18.42;;;461.20;614.40;;;;;;4914438;29;20126;-70
2021/03/08 12:06:41;;;;;;;24.63;17.75;;;487.30;537.60;;;;;;4913040;29;20461;-68
2021/03/08 12:09:07;;;;;;;17.70;15.00;;;487.10;563.20;;;;;;4914300;29;20036;-70
2021/03/08 12:11:33;;;;;;;20.42;16.00;;;486.50;588.80;;;;;;4920768;29;20020;-70
2021/03/08 12:13:58;;;;;;;20.20;14.93;;;486.50;588.80;;;;;;4924498;29;20027;-70
2021/03/08 12:16:24;;;;;;;20.58;15.57;;;512.30;537.60;;;;;;4913569;29;20047;-69
2021/03/08 12:18:50;;;;;;;21.08;15.25;;;512.90;537.60;;;;;;4917112;29;20032;-70
2021/03/08 12:21:16;;;;;;;20.35;14.77;;;538.20;512.00;;;;;;4913753;29;20440;-69
2021/03/08 12:23:41;;;;;;;16.92;13.02;;;538.20;512.00;;;;;;4915723;29;20043;-70